createdAt,value
2022-10-11T00:02:32.603Z,6.82
2022-10-11T00:07:35.223Z,5.97
2022-10-11T00:12:38.245Z,6.93
2022-10-11T00:17:40.725Z,6.43
2022-10-11T00:22:43.333Z,7.03
2022-10-11T00:27:45.916Z,5.65
2022-10-11T00:32:48.388Z,5.63
2022-10-11T00:37:50.866Z,6.65
2022-10-11T00:42:53.327Z,5.65
2022-10-11T00:47:57.543Z,5.83
2022-10-11T00:53:04.109Z,6.03
2022-10-11T00:58:09.019Z,6.53
2022-10-11T01:03:11.749Z,6.43
2022-10-11T01:08:14.249Z,6.05
2022-10-11T01:13:28.602Z,5.70
2022-10-11T01:18:48.640Z,6.05
2022-10-11T01:24:02.639Z,6.20
2022-10-11T01:29:33.171Z,6.20
2022-10-11T01:34:49.981Z,6.05
2022-10-11T01:39:57.781Z,5.77
2022-10-11T01:45:01.658Z,5.22
2022-10-11T01:50:05.449Z,5.13
2022-10-11T01:55:17.684Z,5.47
2022-10-11T02:00:22.589Z,5.13
2022-10-11T02:05:28.235Z,4.53
2022-10-11T02:10:41.151Z,5.32
2022-10-11T02:15:44.955Z,5.00
2022-10-11T02:20:48.313Z,4.43
2022-10-11T02:25:51.586Z,4.22
2022-10-11T02:30:54.818Z,4.33
2022-10-11T02:36:01.941Z,5.20
2022-10-11T02:41:29.300Z,5.20
2022-10-11T02:46:31.933Z,3.83
2022-10-11T02:51:34.503Z,4.32
2022-10-11T02:56:36.921Z,3.53
2022-10-11T03:01:39.458Z,3.28
2022-10-11T03:06:41.925Z,4.10
2022-10-11T03:11:44.485Z,4.43
2022-10-11T03:16:47.259Z,3.80
2022-10-11T03:21:49.700Z,3.47
2022-10-11T03:26:52.187Z,3.95
2022-10-11T03:31:54.692Z,4.50
2022-10-11T03:36:57.193Z,4.40
2022-10-11T03:41:59.635Z,4.70
2022-10-11T03:47:02.084Z,4.47
2022-10-11T03:52:04.677Z,5.55
2022-10-11T03:57:07.525Z,4.77
2022-10-11T04:02:10.128Z,4.95
2022-10-11T04:07:12.641Z,4.40
2022-10-11T04:12:15.155Z,3.80
2022-10-11T04:17:17.664Z,4.55
2022-10-11T04:22:20.112Z,4.60
2022-10-11T04:27:22.901Z,4.32
2022-10-11T04:32:25.386Z,4.20
2022-10-11T04:37:27.851Z,4.07
2022-10-11T04:42:30.301Z,4.40
2022-10-11T04:47:32.758Z,4.67
2022-10-11T04:52:35.246Z,4.25
2022-10-11T04:57:37.802Z,4.63
2022-10-11T05:02:40.266Z,4.13
2022-10-11T05:07:42.828Z,5.10
2022-10-11T05:12:45.526Z,4.87
2022-10-11T05:17:48.349Z,4.30
2022-10-11T05:22:50.813Z,6.57
2022-10-11T05:27:53.211Z,6.30
2022-10-11T05:32:55.701Z,21.08
2022-10-11T05:37:58.183Z,8.10
2022-10-11T05:43:00.706Z,3.97
2022-10-11T05:48:03.211Z,7.72
2022-10-11T05:53:06.349Z,5.33
2022-10-11T05:58:12.517Z,6.18
2022-10-11T06:03:16.554Z,5.47
2022-10-11T06:08:18.991Z,6.65
2022-10-11T06:13:21.593Z,5.50
2022-10-11T06:18:24.014Z,6.50
2022-10-11T06:23:27.193Z,6.15
2022-10-11T06:28:30.230Z,4.97
2022-10-11T06:33:33.412Z,5.00
2022-10-11T06:38:37.287Z,4.43
2022-10-11T06:43:41.398Z,6.03
2022-10-11T06:48:46.867Z,9.00
2022-10-11T06:53:51.454Z,8.90
2022-10-11T06:58:54.852Z,7.47
2022-10-11T07:03:58.712Z,7.75
2022-10-11T07:09:01.624Z,4.90
2022-10-11T07:14:07.966Z,7.50
2022-10-11T07:19:11.012Z,7.67
2022-10-11T07:24:13.496Z,6.18
2022-10-11T07:29:16.102Z,3.10
2022-10-11T07:34:20.662Z,12.27
2022-10-11T07:39:23.095Z,9.10
2022-10-11T07:44:25.634Z,5.00
2022-10-11T07:49:28.107Z,1.45
2022-10-11T07:54:30.544Z,2.92
2022-10-11T07:59:33.318Z,1.50
2022-10-11T08:04:36.576Z,3.08
2022-10-11T08:09:39.107Z,3.40
2022-10-11T08:14:42.109Z,3.10
2022-10-11T08:19:44.592Z,3.30
2022-10-11T08:24:47.072Z,3.47
2022-10-11T08:29:49.736Z,3.85
2022-10-11T08:34:52.938Z,3.97
2022-10-11T08:39:55.868Z,4.38
2022-10-11T08:45:16.708Z,5.10
2022-10-11T08:50:24.200Z,6.30
2022-10-11T08:55:44.162Z,5.75
2022-10-11T09:00:48.535Z,44.03
2022-10-11T09:06:10.366Z,9.25
2022-10-11T09:11:20.536Z,5.63
2022-10-11T09:16:28.901Z,6.10
2022-10-11T09:21:43.346Z,6.95
2022-10-11T09:26:56.882Z,10.00
2022-10-11T09:32:00.188Z,7.70
2022-10-11T09:37:21.715Z,8.43
2022-10-11T09:42:24.200Z,7.70
2022-10-11T09:47:33.017Z,8.18
2022-10-11T09:52:35.528Z,7.97
2022-10-11T09:57:40.275Z,6.93
2022-10-11T10:02:48.979Z,5.68
2022-10-11T10:08:05.490Z,5.07
2022-10-11T10:13:29.513Z,7.13
2022-10-11T10:18:38.357Z,8.55
2022-10-11T10:23:47.421Z,3.93
2022-10-11T10:28:58.357Z,5.97
2022-10-11T10:34:05.131Z,4.47
2022-10-11T10:39:37.717Z,4.05
2022-10-11T10:44:40.246Z,3.72
2022-10-11T10:50:10.252Z,6.77
2022-10-11T10:55:35.339Z,5.05
2022-10-11T11:00:46.387Z,6.90
2022-10-11T11:06:02.661Z,5.40
2022-10-11T11:11:36.859Z,4.30
2022-10-11T11:16:58.259Z,3.50
2022-10-11T11:22:15.724Z,3.58
2022-10-11T11:27:18.232Z,2.67
2022-10-11T11:32:51.662Z,3.58
2022-10-11T11:38:02.633Z,2.88
2022-10-11T11:43:33.811Z,1.43
2022-10-11T11:48:36.446Z,2.53
2022-10-11T11:54:06.377Z,5.63
2022-10-11T11:59:27.168Z,3.08
2022-10-11T12:04:32.179Z,4.40
2022-10-11T12:09:36.453Z,4.40
2022-10-11T12:14:42.664Z,4.03
2022-10-11T12:20:08.626Z,3.28
2022-10-11T12:25:14.951Z,3.57
2022-10-11T12:30:47.597Z,5.55
2022-10-11T12:35:57.919Z,4.67
2022-10-11T12:41:16.968Z,4.15
2022-10-11T12:46:31.405Z,4.35
2022-10-11T12:52:01.045Z,5.23
2022-10-11T12:57:12.550Z,3.88
2022-10-11T13:02:40.421Z,5.80
2022-10-11T13:07:43.400Z,6.60
2022-10-11T13:12:47.652Z,3.10
2022-10-11T13:17:52.899Z,4.87
2022-10-11T13:22:56.599Z,3.90
2022-10-11T13:27:59.642Z,2.13
2022-10-11T13:33:04.567Z,3.67
2022-10-11T13:38:15.268Z,3.88
2022-10-11T13:43:20.933Z,3.40
2022-10-11T13:48:25.245Z,4.82
2022-10-11T13:53:33.572Z,3.10
2022-10-11T13:58:38.740Z,7.93
2022-10-11T14:03:54.317Z,6.85
2022-10-11T14:08:58.618Z,7.68
2022-10-11T14:14:01.170Z,7.57
2022-10-11T14:19:10.123Z,7.20
2022-10-11T14:24:13.103Z,6.87
2022-10-11T14:29:28.392Z,8.07
2022-10-11T14:34:31.008Z,7.25
2022-10-11T14:39:33.972Z,7.33
2022-10-11T14:44:36.435Z,6.32
2022-10-11T14:49:38.877Z,5.53
2022-10-11T14:54:41.439Z,5.77
2022-10-11T14:59:43.895Z,6.80
2022-10-11T15:04:46.342Z,6.47
2022-10-11T15:09:48.766Z,7.30
2022-10-11T15:14:51.349Z,6.03
2022-10-11T15:19:54.169Z,6.57
2022-10-11T15:24:56.877Z,7.47
2022-10-11T15:29:59.318Z,8.50
2022-10-11T15:35:01.767Z,9.70
2022-10-11T15:40:17.672Z,7.30
2022-10-11T15:45:20.740Z,8.53
2022-10-11T15:50:34.856Z,6.97
2022-10-11T15:55:42.418Z,6.63
2022-10-11T16:00:46.563Z,6.63
2022-10-11T16:05:49.439Z,7.10
2022-10-11T16:10:52.336Z,7.20
2022-10-11T16:15:55.275Z,7.32
2022-10-11T16:20:57.841Z,7.70
2022-10-11T16:26:02.673Z,7.90
2022-10-11T16:31:10.544Z,6.70
2022-10-11T16:36:35.743Z,7.93
2022-10-11T16:41:38.635Z,7.75
2022-10-11T16:46:41.531Z,7.00
2022-10-11T16:51:44.050Z,7.10
2022-10-11T16:56:46.884Z,7.68
2022-10-11T17:01:49.771Z,8.90
2022-10-11T17:06:54.283Z,12.15
2022-10-11T17:11:56.749Z,13.10
2022-10-11T17:16:59.245Z,15.48
2022-10-11T17:22:01.710Z,17.27
2022-10-11T17:27:05.034Z,21.37
2022-10-11T17:32:08.231Z,18.17
2022-10-11T17:37:12.618Z,16.50
2022-10-11T17:42:15.091Z,16.98
2022-10-11T17:47:17.579Z,17.15
2022-10-11T17:52:20.127Z,17.70
2022-10-11T17:57:22.568Z,18.15
2022-10-11T18:02:25.167Z,17.73
2022-10-11T18:07:27.609Z,20.15
2022-10-11T18:12:30.280Z,22.08
2022-10-11T18:17:32.719Z,26.37
2022-10-11T18:22:35.205Z,21.70
2022-10-11T18:27:37.715Z,22.37
2022-10-11T18:32:40.140Z,11.35
2022-10-11T18:37:43.056Z,9.00
2022-10-11T18:42:45.516Z,7.53
2022-10-11T18:47:50.874Z,18.13
2022-10-11T18:52:53.378Z,14.17
2022-10-11T18:57:56.305Z,5.72
2022-10-11T19:02:58.802Z,7.32
2022-10-11T19:08:01.232Z,11.50
2022-10-11T19:13:04.078Z,12.55
2022-10-11T19:18:06.600Z,12.23
2022-10-11T19:23:09.134Z,9.38
2022-10-11T19:28:15.595Z,7.18
2022-10-11T19:33:19.463Z,9.27
2022-10-11T19:43:29.431Z,12.00
2022-10-11T19:48:32.282Z,10.25
2022-10-11T19:53:35.208Z,12.02
2022-10-11T19:58:38.013Z,18.40
2022-10-11T20:03:42.556Z,22.85
2022-10-11T20:08:45.990Z,21.07
2022-10-11T20:13:49.282Z,20.52
2022-10-11T20:18:53.307Z,26.67
2022-10-11T20:23:59.811Z,14.37
2022-10-11T20:29:03.491Z,14.15
2022-10-11T20:34:07.592Z,11.47
2022-10-11T20:39:10.746Z,12.00
2022-10-11T20:44:15.872Z,14.50
2022-10-11T20:49:20.059Z,12.53
2022-10-11T20:54:22.595Z,13.30
2022-10-11T20:59:25.199Z,15.37
2022-10-11T21:04:27.657Z,14.18
2022-10-11T21:09:30.177Z,12.18
2022-10-11T21:14:32.796Z,10.03
2022-10-11T21:19:35.213Z,14.77
2022-10-11T21:24:38.784Z,15.17
2022-10-11T21:29:41.246Z,17.67
2022-10-11T21:34:45.263Z,18.35
2022-10-11T21:39:47.776Z,20.23
2022-10-11T21:44:50.205Z,18.27
2022-10-11T21:49:52.624Z,18.77
2022-10-11T21:54:55.138Z,21.63
2022-10-11T21:59:57.569Z,17.50
2022-10-11T22:05:00.007Z,12.87
2022-10-11T22:10:02.484Z,14.32
2022-10-11T22:15:05.361Z,11.50
2022-10-11T22:20:08.532Z,11.75
2022-10-11T22:25:11.041Z,10.82
2022-10-11T22:30:13.520Z,12.00
2022-10-11T22:35:16.009Z,10.98
2022-10-11T22:40:19.037Z,10.07
2022-10-11T22:45:21.477Z,9.98
2022-10-11T22:50:23.895Z,9.07
2022-10-11T22:55:26.353Z,9.00
2022-10-11T23:00:28.892Z,9.15
2022-10-11T23:05:31.380Z,9.27
2022-10-11T23:10:33.920Z,8.85
2022-10-11T23:15:40.928Z,9.82
2022-10-11T23:20:43.412Z,9.13
2022-10-11T23:25:45.917Z,14.30
2022-10-11T23:30:48.375Z,10.57
2022-10-11T23:35:51.300Z,10.60
2022-10-11T23:40:53.720Z,9.15
2022-10-11T23:45:57.348Z,9.57
2022-10-11T23:50:59.805Z,8.88
2022-10-11T23:56:02.751Z,10.40
